Time;durP1;ratioP1;P1;durP2;ratioP2;P2;SDS_P1;SDS_P2;PMS_P1;PMS_P2;Temp;Humidity;BMP_temperature;BMP_pressure;BME280_temperature;BME280_humidity;BME280_pressure;Samples;Min_cycle;Max_cycle;Signal;HPM_P1;HPM_P2
2023/12/22 00:01:06;;;;;;;5.90;2.50;;;10.60;99.90;;;;;;5023927;28;20184;-69
2023/12/22 00:03:31;;;;;;;8.53;2.30;;;10.60;99.90;;;;;;5030167;28;20200;-68
2023/12/22 00:05:57;;;;;;;6.87;1.90;;;10.70;99.90;;;;;;5024489;28;20189;-68
2023/12/22 00:08:23;;;;;;;4.63;1.83;;;10.70;99.90;;;;;;5024466;28;20295;-69
2023/12/22 00:10:49;;;;;;;6.93;2.87;;;10.70;99.90;;;;;;5029585;28;20544;-68
2023/12/22 00:13:15;;;;;;;4.53;2.10;;;10.80;99.90;;;;;;5025195;28;20451;-68
2023/12/22 00:15:42;;;;;;;4.67;1.90;;;10.80;99.90;;;;;;5026844;28;20506;-69
2023/12/22 00:18:08;;;;;;;3.70;2.10;;;10.80;99.90;;;;;;5017419;28;20241;-68
2023/12/22 00:20:33;;;;;;;7.43;2.00;;;10.90;99.90;;;;;;5021287;28;20419;-68
2023/12/22 00:22:59;;;;;;;4.97;2.40;;;10.90;99.90;;;;;;5014259;28;20213;-68
2023/12/22 00:25:25;;;;;;;6.77;2.47;;;10.90;99.90;;;;;;5024200;28;20185;-68
2023/12/22 00:27:50;;;;;;;6.50;2.10;;;11.00;99.90;;;;;;5022178;28;20200;-68
2023/12/22 00:30:16;;;;;;;6.57;2.10;;;11.00;99.90;;;;;;5028970;28;20469;-68
2023/12/22 00:32:42;;;;;;;7.33;1.97;;;11.10;99.90;;;;;;5028001;28;20176;-68
2023/12/22 00:35:08;;;;;;;4.00;1.97;;;11.00;99.90;;;;;;5020587;28;20653;-68
2023/12/22 00:37:33;;;;;;;6.00;1.87;;;11.10;99.90;;;;;;5020315;28;20251;-68
2023/12/22 00:39:59;;;;;;;7.47;2.07;;;11.10;99.90;;;;;;5024609;28;20176;-68
2023/12/22 00:42:25;;;;;;;5.77;1.73;;;11.20;99.90;;;;;;5022139;28;20184;-69
2023/12/22 00:44:51;;;;;;;6.90;1.97;;;11.10;99.90;;;;;;5025096;28;22020;-69
2023/12/22 00:47:17;;;;;;;4.70;2.07;;;11.00;99.90;;;;;;5021113;28;20442;-69
2023/12/22 00:49:42;;;;;;;6.47;2.07;;;11.00;99.90;;;;;;5014777;28;20216;-69
2023/12/22 00:52:08;;;;;;;5.27;1.80;;;10.90;99.90;;;;;;5014666;28;20268;-69
2023/12/22 00:54:34;;;;;;;6.00;1.63;;;10.80;99.90;;;;;;5015094;28;20266;-69
2023/12/22 00:56:59;;;;;;;4.30;1.90;;;10.80;99.90;;;;;;5020808;28;20181;-69
2023/12/22 00:59:25;;;;;;;3.80;2.10;;;10.80;99.90;;;;;;5025860;28;20220;-68
2023/12/22 01:01:50;;;;;;;6.70;2.00;;;10.80;99.90;;;;;;5021999;28;20692;-69
2023/12/22 01:04:16;;;;;;;5.20;2.00;;;10.80;99.90;;;;;;5022309;28;20192;-69
2023/12/22 01:06:41;;;;;;;5.70;1.80;;;10.70;99.90;;;;;;5024835;28;20202;-69
2023/12/22 01:09:07;;;;;;;4.87;1.67;;;10.70;99.90;;;;;;5024112;28;20217;-69
2023/12/22 01:11:32;;;;;;;4.13;1.83;;;10.60;99.90;;;;;;5023171;28;20186;-69
2023/12/22 01:13:58;;;;;;;4.63;2.00;;;10.60;99.90;;;;;;5021088;28;20231;-69
2023/12/22 01:16:24;;;;;;;5.17;2.00;;;10.60;99.90;;;;;;5018917;28;20188;-69
2023/12/22 01:18:50;;;;;;;6.93;1.97;;;10.60;99.90;;;;;;5023507;28;20659;-68
2023/12/22 01:21:16;;;;;;;4.77;1.90;;;10.60;99.90;;;;;;5025237;28;20223;-68
2023/12/22 01:23:42;;;;;;;7.40;1.57;;;10.50;99.90;;;;;;5022223;28;21107;-69
2023/12/22 01:26:08;;;;;;;3.80;1.90;;;10.50;99.90;;;;;;5019970;28;20514;-69
2023/12/22 01:28:34;;;;;;;5.43;1.90;;;10.50;99.90;;;;;;5018097;28;20208;-69
2023/12/22 01:31:00;;;;;;;6.57;1.70;;;10.50;99.90;;;;;;5018695;28;20176;-68
2023/12/22 01:33:26;;;;;;;3.10;1.63;;;10.50;99.90;;;;;;5023606;28;20894;-69
2023/12/22 01:35:51;;;;;;;4.17;1.73;;;10.50;99.90;;;;;;5017399;28;20184;-68
2023/12/22 01:38:17;;;;;;;4.17;1.70;;;10.50;99.90;;;;;;5020459;28;20177;-68
2023/12/22 01:40:43;;;;;;;3.93;1.47;;;10.40;99.90;;;;;;5022983;28;20657;-69
2023/12/22 01:43:08;;;;;;;3.70;1.90;;;10.40;99.90;;;;;;5019989;28;21026;-69
2023/12/22 01:45:34;;;;;;;2.40;1.13;;;10.40;99.90;;;;;;5024106;28;20235;-69
2023/12/22 01:48:00;;;;;;;3.63;1.60;;;10.40;99.90;;;;;;5024498;28;20298;-68
2023/12/22 01:50:26;;;;;;;3.40;1.30;;;10.40;99.90;;;;;;5028417;28;20199;-68
2023/12/22 01:52:52;;;;;;;2.83;1.10;;;10.40;99.90;;;;;;5025308;28;20415;-68
2023/12/22 01:55:18;;;;;;;3.53;1.40;;;10.30;99.90;;;;;;5027540;28;20508;-68
2023/12/22 01:57:44;;;;;;;3.23;1.77;;;10.30;99.90;;;;;;5025553;28;20728;-68
2023/12/22 02:00:11;;;;;;;3.20;1.63;;;10.30;99.90;;;;;;5025978;28;20185;-68
2023/12/22 02:02:42;;;;;;;3.87;1.63;;;10.20;99.90;;;;;;5030295;28;20437;-68
2023/12/22 02:05:11;;;;;;;3.90;1.73;;;10.10;99.90;;;;;;5022579;28;20490;-68
2023/12/22 02:07:41;;;;;;;4.33;1.60;;;10.00;99.90;;;;;;5026983;28;20427;-68
2023/12/22 02:10:08;;;;;;;4.50;1.60;;;10.00;99.90;;;;;;5026091;28;20414;-69
2023/12/22 02:12:35;;;;;;;3.40;1.40;;;10.00;99.90;;;;;;5052966;28;20465;-68
2023/12/22 02:15:01;;;;;;;7.57;2.13;;;10.00;99.90;;;;;;5023382;28;20411;-69
2023/12/22 02:17:32;;;;;;;9.07;1.90;;;10.00;99.90;;;;;;5027571;28;20406;-68
2023/12/22 02:19:58;;;;;;;6.93;1.70;;;10.00;99.90;;;;;;5026048;28;20414;-68
2023/12/22 02:22:24;;;;;;;4.70;1.80;;;10.00;99.90;;;;;;5027680;28;20561;-69
2023/12/22 02:24:50;;;;;;;5.73;1.80;;;9.90;99.90;;;;;;5024527;28;20906;-69
2023/12/22 02:27:24;;;;;;;7.10;2.10;;;9.90;99.90;;;;;;5026080;28;20295;-69
2023/12/22 02:29:56;;;;;;;4.00;1.70;;;9.90;99.90;;;;;;5026841;28;20937;-68
2023/12/22 02:32:27;;;;;;;3.30;1.47;;;9.80;99.90;;;;;;5021544;28;21000;-69
2023/12/22 02:34:54;;;;;;;4.80;1.57;;;9.80;99.90;;;;;;5027968;28;20442;-68
2023/12/22 02:37:22;;;;;;;5.53;1.70;;;9.80;99.90;;;;;;5023406;28;20404;-68
2023/12/22 02:39:49;;;;;;;4.40;2.00;;;9.80;99.90;;;;;;5028032;28;21340;-68
2023/12/22 02:42:15;;;;;;;5.90;2.47;;;9.90;99.90;;;;;;5017989;28;20415;-68
2023/12/22 02:44:40;;;;;;;5.70;1.80;;;9.90;99.90;;;;;;5022227;28;21111;-68
2023/12/22 02:47:06;;;;;;;7.20;2.00;;;10.00;99.90;;;;;;5024282;28;20415;-68
2023/12/22 02:49:31;;;;;;;7.80;2.30;;;10.10;99.90;;;;;;5025467;28;20338;-68
2023/12/22 02:51:57;;;;;;;3.70;1.83;;;10.10;99.90;;;;;;5026333;28;20600;-69
2023/12/22 02:54:23;;;;;;;4.23;1.60;;;9.90;99.90;;;;;;5028082;28;20206;-69
2023/12/22 02:56:48;;;;;;;5.37;1.87;;;10.00;99.90;;;;;;5022402;28;20191;-68
2023/12/22 02:59:14;;;;;;;3.33;1.73;;;10.00;99.90;;;;;;5023230;28;20259;-69
2023/12/22 03:01:40;;;;;;;4.83;1.37;;;10.00;99.90;;;;;;5024140;28;20183;-69
2023/12/22 03:04:05;;;;;;;8.20;1.80;;;9.90;99.90;;;;;;5022945;28;20212;-69
2023/12/22 03:06:31;;;;;;;31.37;2.73;;;9.90;99.90;;;;;;5026604;28;20194;-68
2023/12/22 03:08:56;;;;;;;5.20;1.80;;;9.80;99.90;;;;;;5023891;28;20211;-68
2023/12/22 03:11:22;;;;;;;7.40;1.90;;;9.80;99.90;;;;;;5026451;28;20188;-68
2023/12/22 03:13:47;;;;;;;5.30;1.50;;;9.80;99.90;;;;;;5023297;28;20199;-69
2023/12/22 03:16:13;;;;;;;3.20;1.33;;;9.80;99.90;;;;;;5026510;28;21136;-69
2023/12/22 03:18:41;;;;;;;7.57;1.90;;;9.90;99.90;;;;;;5031870;28;20209;-68
2023/12/22 03:21:07;;;;;;;6.90;2.23;;;9.90;99.90;;;;;;5054670;28;20185;-69
2023/12/22 03:23:32;;;;;;;4.90;1.77;;;9.90;99.90;;;;;;5032871;28;20480;-69
2023/12/22 03:25:58;;;;;;;3.60;1.73;;;9.90;99.90;;;;;;5031689;28;20609;-68
2023/12/22 03:28:23;;;;;;;3.60;1.30;;;9.90;99.90;;;;;;5026251;28;20678;-69
2023/12/22 03:30:49;;;;;;;3.83;1.33;;;9.90;99.90;;;;;;5028101;28;20204;-68
2023/12/22 03:33:14;;;;;;;3.37;1.90;;;9.90;99.90;;;;;;5035393;28;20279;-68
2023/12/22 03:35:40;;;;;;;10.10;1.50;;;10.00;99.90;;;;;;5029683;28;20187;-68
2023/12/22 03:38:06;;;;;;;3.40;1.70;;;10.00;99.90;;;;;;5027682;28;20184;-69
2023/12/22 03:40:31;;;;;;;5.10;1.67;;;10.10;99.90;;;;;;5028867;28;20492;-69
2023/12/22 03:42:57;;;;;;;2.93;1.57;;;10.10;99.90;;;;;;5031483;28;20239;-69
2023/12/22 03:45:22;;;;;;;2.87;1.50;;;9.90;99.90;;;;;;5029252;28;20271;-68
2023/12/22 03:47:48;;;;;;;7.73;2.27;;;9.90;99.90;;;;;;5029428;28;20235;-68
2023/12/22 03:50:13;;;;;;;6.27;1.60;;;9.90;99.90;;;;;;5058224;28;21255;-69
2023/12/22 03:52:39;;;;;;;4.73;2.30;;;9.90;99.90;;;;;;5032880;28;20176;-68
2023/12/22 03:55:05;;;;;;;5.70;2.30;;;9.90;99.90;;;;;;5029424;28;20279;-68
2023/12/22 03:57:30;;;;;;;8.67;2.70;;;9.70;99.90;;;;;;5030602;28;20880;-69
2023/12/22 03:59:56;;;;;;;5.63;2.10;;;9.70;99.90;;;;;;5028972;28;20422;-69
2023/12/22 04:02:22;;;;;;;3.67;1.70;;;9.60;99.90;;;;;;5027054;28;20188;-69
2023/12/22 04:04:47;;;;;;;7.67;2.30;;;9.60;99.90;;;;;;5029369;28;20199;-68
2023/12/22 04:07:13;;;;;;;5.40;1.80;;;9.50;99.90;;;;;;5026210;28;20510;-68
2023/12/22 04:09:38;;;;;;;3.70;1.50;;;9.40;99.90;;;;;;5033821;28;20257;-68
2023/12/22 04:12:04;;;;;;;3.00;1.60;;;9.40;99.90;;;;;;5028163;28;20183;-69
2023/12/22 04:14:30;;;;;;;8.43;2.20;;;9.40;99.90;;;;;;5026127;28;20196;-68
2023/12/22 04:16:57;;;;;;;3.93;2.10;;;9.40;99.90;;;;;;5024914;28;20427;-69
2023/12/22 04:19:22;;;;;;;7.00;2.20;;;9.40;99.90;;;;;;5025075;28;20183;-69
2023/12/22 04:21:48;;;;;;;6.43;2.20;;;9.40;99.90;;;;;;5030951;28;20958;-69
2023/12/22 04:24:14;;;;;;;5.80;2.30;;;9.40;99.90;;;;;;5030282;28;20242;-69
2023/12/22 04:26:39;;;;;;;9.27;2.00;;;9.50;99.90;;;;;;5028204;28;20183;-69
2023/12/22 04:29:05;;;;;;;4.73;2.00;;;9.40;99.90;;;;;;5026268;28;20273;-69
2023/12/22 04:31:30;;;;;;;5.20;1.77;;;9.40;99.90;;;;;;5027764;28;20192;-70
2023/12/22 04:33:56;;;;;;;4.77;2.10;;;9.40;99.90;;;;;;5022080;28;20239;-68
2023/12/22 04:36:21;;;;;;;6.50;2.37;;;9.40;99.90;;;;;;5030309;28;20177;-68
2023/12/22 04:38:47;;;;;;;5.73;2.17;;;9.40;99.90;;;;;;5030249;28;20265;-68
2023/12/22 04:41:12;;;;;;;6.67;2.20;;;9.40;99.90;;;;;;5026145;28;20208;-69
2023/12/22 04:43:38;;;;;;;7.17;2.27;;;9.40;99.90;;;;;;5029426;28;20232;-68
2023/12/22 04:46:04;;;;;;;5.10;2.30;;;9.50;99.90;;;;;;5028333;28;20820;-68
2023/12/22 04:48:29;;;;;;;3.87;1.80;;;9.50;99.90;;;;;;5022047;28;20308;-68
2023/12/22 04:50:55;;;;;;;5.20;2.10;;;9.60;99.90;;;;;;5023459;28;20187;-69
2023/12/22 04:53:20;;;;;;;5.97;1.93;;;9.60;99.90;;;;;;5028135;28;20201;-68
2023/12/22 04:55:46;;;;;;;6.70;2.30;;;9.60;99.90;;;;;;5030117;28;20226;-68
2023/12/22 04:58:11;;;;;;;6.17;1.87;;;9.60;99.90;;;;;;5025093;28;20642;-69
2023/12/22 05:00:37;;;;;;;8.47;2.13;;;9.70;99.90;;;;;;5026488;28;20219;-69
2023/12/22 05:03:03;;;;;;;6.93;2.50;;;9.70;99.90;;;;;;5026439;28;20621;-68
2023/12/22 05:05:29;;;;;;;6.77;2.43;;;9.70;99.90;;;;;;5021593;28;20244;-68
2023/12/22 05:07:54;;;;;;;8.33;2.17;;;9.80;99.90;;;;;;5022511;28;20480;-69
2023/12/22 05:10:20;;;;;;;5.73;2.33;;;9.80;99.90;;;;;;5023393;28;20245;-68
2023/12/22 05:12:45;;;;;;;10.13;2.30;;;9.80;99.90;;;;;;5022213;28;20203;-69
2023/12/22 05:15:11;;;;;;;12.60;2.60;;;9.70;99.90;;;;;;5022511;28;20220;-68
2023/12/22 05:17:37;;;;;;;8.73;3.03;;;9.70;99.90;;;;;;5027492;28;20526;-69
2023/12/22 05:20:02;;;;;;;12.33;2.70;;;9.70;99.90;;;;;;5024395;28;20177;-68
2023/12/22 05:22:30;;;;;;;4.73;1.97;;;9.70;99.90;;;;;;5023348;28;20685;-68
2023/12/22 05:24:57;;;;;;;8.30;2.47;;;9.70;99.90;;;;;;5027799;28;20250;-68
2023/12/22 05:27:22;;;;;;;5.10;2.20;;;9.70;99.90;;;;;;5023685;28;20420;-68
2023/12/22 05:29:48;;;;;;;7.40;3.50;;;9.70;99.90;;;;;;5024895;28;20504;-68
2023/12/22 05:32:13;;;;;;;11.63;2.70;;;9.70;99.90;;;;;;5023709;28;20571;-68
2023/12/22 05:34:39;;;;;;;9.27;3.07;;;9.80;99.90;;;;;;5021955;28;20193;-68
2023/12/22 05:37:04;;;;;;;9.17;2.73;;;9.80;99.90;;;;;;5024216;28;20673;-68
2023/12/22 05:39:30;;;;;;;10.30;2.47;;;9.80;99.90;;;;;;5019449;28;20199;-68
2023/12/22 05:41:55;;;;;;;11.60;2.67;;;9.90;99.90;;;;;;5020259;28;20220;-68
2023/12/22 05:44:23;;;;;;;8.73;2.40;;;9.90;99.90;;;;;;5020958;28;21649;-68
2023/12/22 05:46:49;;;;;;;9.10;2.77;;;9.90;99.90;;;;;;5020661;28;20654;-68
2023/12/22 05:49:14;;;;;;;6.87;2.37;;;10.00;99.90;;;;;;5020969;28;20463;-68
2023/12/22 05:51:40;;;;;;;7.40;2.40;;;9.90;99.90;;;;;;5021286;28;20215;-68
2023/12/22 05:54:10;;;;;;;9.57;3.40;;;9.90;99.90;;;;;;5021734;28;20634;-68
2023/12/22 05:56:36;;;;;;;11.80;2.50;;;9.90;99.90;;;;;;5022622;28;20633;-68
2023/12/22 05:59:03;;;;;;;7.50;2.47;;;9.90;99.90;;;;;;5022779;28;20442;-69
2023/12/22 06:01:28;;;;;;;11.60;2.50;;;10.00;99.90;;;;;;5023683;28;20326;-69
2023/12/22 06:03:54;;;;;;;9.40;2.37;;;10.00;99.90;;;;;;5021326;28;20561;-68
2023/12/22 06:06:20;;;;;;;12.20;2.93;;;10.00;99.90;;;;;;5021121;28;20646;-68
2023/12/22 06:08:46;;;;;;;9.33;2.93;;;10.00;99.90;;;;;;5019819;28;20488;-68
2023/12/22 06:11:12;;;;;;;9.13;2.57;;;10.00;99.90;;;;;;5023113;28;20925;-68
2023/12/22 06:13:38;;;;;;;13.23;3.20;;;10.00;99.90;;;;;;5019694;28;20255;-68
2023/12/22 06:16:03;;;;;;;8.00;2.93;;;10.00;99.90;;;;;;5022807;28;20509;-69
2023/12/22 06:18:29;;;;;;;12.43;3.30;;;10.10;99.90;;;;;;5020694;28;20223;-69
2023/12/22 06:20:54;;;;;;;9.67;2.33;;;10.10;99.90;;;;;;5022807;28;20209;-68
2023/12/22 06:23:20;;;;;;;9.10;2.70;;;10.10;99.90;;;;;;5021104;28;20231;-69
2023/12/22 06:25:46;;;;;;;8.13;2.80;;;10.10;99.90;;;;;;5021225;28;20216;-68
2023/12/22 06:28:12;;;;;;;7.80;2.77;;;10.10;99.90;;;;;;5022373;28;20223;-68
2023/12/22 06:30:38;;;;;;;5.13;1.97;;;10.20;99.90;;;;;;5021597;28;20642;-69
2023/12/22 06:33:03;;;;;;;5.20;2.03;;;10.10;99.90;;;;;;5023161;28;20439;-68
2023/12/22 06:35:31;;;;;;;6.23;2.50;;;10.00;99.90;;;;;;5023104;28;20239;-68
2023/12/22 06:38:01;;;;;;;8.77;2.70;;;9.90;99.90;;;;;;5017752;28;20987;-68
2023/12/22 06:40:26;;;;;;;8.50;2.53;;;9.90;99.90;;;;;;5020083;28;20934;-68
2023/12/22 06:42:52;;;;;;;9.00;2.70;;;9.90;99.90;;;;;;5019002;28;20423;-68
2023/12/22 06:45:17;;;;;;;14.10;3.13;;;9.90;99.90;;;;;;5020034;28;20247;-68
2023/12/22 06:47:43;;;;;;;9.30;2.23;;;9.90;99.90;;;;;;5020289;28;20188;-68
2023/12/22 06:50:09;;;;;;;11.30;3.53;;;9.90;99.90;;;;;;5022003;28;20191;-68
2023/12/22 06:52:34;;;;;;;7.97;2.30;;;9.90;99.90;;;;;;5020066;28;20596;-68
2023/12/22 06:55:00;;;;;;;5.70;2.40;;;9.90;99.90;;;;;;5023127;28;20207;-68
2023/12/22 06:57:25;;;;;;;7.93;2.30;;;9.90;99.90;;;;;;5018196;28;20184;-68
2023/12/22 06:59:51;;;;;;;9.67;2.40;;;9.90;99.90;;;;;;5022854;28;20588;-68
2023/12/22 07:02:16;;;;;;;7.67;3.70;;;9.80;99.90;;;;;;5022502;28;20558;-68
2023/12/22 07:05:10;;;;;;;10.67;3.60;;;9.70;99.90;;;;;;5021134;28;20693;-68
2023/12/22 07:07:36;;;;;;;9.50;3.00;;;9.70;99.90;;;;;;5019795;28;20191;-69
2023/12/22 07:10:02;;;;;;;11.53;3.60;;;9.70;99.90;;;;;;5021852;28;20438;-69
2023/12/22 07:12:28;;;;;;;10.63;2.93;;;9.60;99.90;;;;;;5018939;28;20813;-69
2023/12/22 07:14:54;;;;;;;17.40;4.77;;;9.60;99.90;;;;;;5022878;28;21184;-69
2023/12/22 07:17:19;;;;;;;12.40;3.30;;;9.60;99.90;;;;;;5021675;28;20275;-69
2023/12/22 07:19:45;;;;;;;13.17;3.23;;;9.60;99.90;;;;;;5020588;28;20189;-68
2023/12/22 07:22:10;;;;;;;11.17;4.00;;;9.60;99.90;;;;;;5045969;28;20192;-69
2023/12/22 07:24:36;;;;;;;10.67;3.73;;;9.50;99.90;;;;;;5020849;28;20346;-68
2023/12/22 07:27:02;;;;;;;10.27;3.23;;;9.60;99.90;;;;;;5021039;28;20200;-68
2023/12/22 07:29:27;;;;;;;13.10;4.33;;;9.50;99.90;;;;;;5020698;28;20212;-69
2023/12/22 07:31:53;;;;;;;11.27;3.17;;;9.60;99.90;;;;;;5022520;28;20322;-69
2023/12/22 07:34:18;;;;;;;10.70;4.07;;;9.60;99.90;;;;;;5020011;28;20212;-69
2023/12/22 07:36:44;;;;;;;12.97;3.43;;;9.70;99.90;;;;;;5021765;28;20181;-69
2023/12/22 07:39:10;;;;;;;12.50;3.83;;;9.60;99.90;;;;;;5018036;28;20655;-68
2023/12/22 07:41:36;;;;;;;9.30;3.40;;;9.50;99.90;;;;;;5022527;28;20674;-69
2023/12/22 07:44:02;;;;;;;12.13;3.00;;;9.40;99.90;;;;;;5019992;28;20522;-69
2023/12/22 07:46:28;;;;;;;15.23;3.60;;;9.40;99.90;;;;;;5017122;28;20260;-69
2023/12/22 07:48:54;;;;;;;9.73;4.13;;;9.40;99.90;;;;;;5018800;28;20215;-69
2023/12/22 07:51:20;;;;;;;10.17;2.80;;;9.30;99.90;;;;;;5017268;28;20440;-69
2023/12/22 07:53:45;;;;;;;14.43;4.30;;;9.30;99.90;;;;;;5018280;28;21068;-69
2023/12/22 07:56:11;;;;;;;11.87;3.67;;;9.30;99.90;;;;;;5015163;28;20458;-69
2023/12/22 07:58:37;;;;;;;14.73;3.80;;;9.30;99.90;;;;;;5020221;28;20702;-69
2023/12/22 08:01:05;;;;;;;13.27;4.93;;;9.30;99.90;;;;;;5014772;28;20193;-69
2023/12/22 08:03:32;;;;;;;7.83;3.20;;;9.20;99.90;;;;;;5017796;28;20978;-69
2023/12/22 08:05:57;;;;;;;13.00;3.20;;;9.20;99.90;;;;;;5023036;28;20511;-69
2023/12/22 08:08:23;;;;;;;10.20;3.10;;;9.30;99.90;;;;;;5024745;28;20871;-68
2023/12/22 08:10:48;;;;;;;11.53;3.27;;;9.30;99.90;;;;;;5022367;28;20281;-68
2023/12/22 08:13:14;;;;;;;13.77;3.60;;;9.30;99.90;;;;;;5023841;28;20216;-69
2023/12/22 08:15:41;;;;;;;17.83;3.53;;;9.30;99.90;;;;;;5025214;28;20184;-68
2023/12/22 08:18:06;;;;;;;9.57;3.00;;;9.30;99.90;;;;;;5024933;28;20540;-69
2023/12/22 08:20:32;;;;;;;13.33;3.20;;;9.40;99.90;;;;;;5021725;28;20425;-68
2023/12/22 08:22:58;;;;;;;17.60;3.87;;;9.40;99.90;;;;;;5025706;28;20311;-69
2023/12/22 08:25:23;;;;;;;13.73;4.00;;;9.50;99.90;;;;;;5024990;28;20188;-68
2023/12/22 08:27:49;;;;;;;14.50;3.70;;;9.50;99.90;;;;;;5023361;28;20196;-69
2023/12/22 08:30:14;;;;;;;17.00;4.43;;;9.60;99.90;;;;;;5020631;28;22192;-69
2023/12/22 08:32:40;;;;;;;18.73;5.10;;;9.60;99.90;;;;;;5023840;28;20258;-69
2023/12/22 08:35:06;;;;;;;13.40;3.80;;;9.60;99.90;;;;;;5023311;28;20638;-69
2023/12/22 08:37:32;;;;;;;12.23;3.33;;;9.70;99.90;;;;;;5023112;28;20193;-69
2023/12/22 08:39:57;;;;;;;12.90;3.10;;;9.70;99.90;;;;;;5022158;28;20446;-68
2023/12/22 08:42:24;;;;;;;11.60;2.97;;;9.70;99.90;;;;;;5025249;28;20192;-68
2023/12/22 08:44:50;;;;;;;10.77;3.10;;;9.70;99.90;;;;;;5023953;28;20211;-69
2023/12/22 08:47:16;;;;;;;11.90;3.90;;;9.70;99.90;;;;;;5018724;28;20882;-69
2023/12/22 08:49:41;;;;;;;12.10;3.40;;;9.80;99.90;;;;;;5022840;28;20216;-68
2023/12/22 08:52:07;;;;;;;12.80;3.03;;;9.80;99.90;;;;;;5022597;28;20200;-68
2023/12/22 08:54:34;;;;;;;10.80;3.87;;;9.90;99.90;;;;;;5024509;28;20200;-68
2023/12/22 08:57:01;;;;;;;14.30;5.40;;;9.90;99.90;;;;;;5019885;28;20442;-68
2023/12/22 08:59:26;;;;;;;16.90;3.70;;;9.90;99.90;;;;;;5025978;28;20469;-69
2023/12/22 09:01:52;;;;;;;13.73;3.80;;;9.90;99.90;;;;;;5023215;28;20430;-68
2023/12/22 09:04:18;;;;;;;21.53;3.00;;;9.90;99.90;;;;;;5023029;28;20232;-69
2023/12/22 09:06:43;;;;;;;9.60;3.30;;;10.00;99.90;;;;;;5019606;28;20184;-69
2023/12/22 09:09:09;;;;;;;13.03;3.73;;;10.00;99.90;;;;;;5025348;28;20220;-69
2023/12/22 09:11:36;;;;;;;11.33;3.60;;;10.00;99.90;;;;;;5020962;28;20208;-69
2023/12/22 09:14:02;;;;;;;11.40;3.07;;;10.10;99.90;;;;;;5022429;28;20200;-69
2023/12/22 09:16:27;;;;;;;26.83;3.93;;;10.10;99.90;;;;;;5019092;28;20423;-69
2023/12/22 09:18:53;;;;;;;15.00;3.67;;;10.10;99.90;;;;;;5022738;28;20860;-69
2023/12/22 09:21:19;;;;;;;16.63;3.77;;;10.20;99.90;;;;;;5049926;28;20212;-69
2023/12/22 09:23:46;;;;;;;16.83;3.70;;;10.10;99.90;;;;;;5023920;28;20642;-69
2023/12/22 09:26:13;;;;;;;13.73;3.70;;;10.20;99.90;;;;;;5023249;28;20189;-68
2023/12/22 09:28:39;;;;;;;14.57;3.90;;;10.10;99.90;;;;;;5022862;28;20478;-69
2023/12/22 09:31:06;;;;;;;13.67;2.97;;;10.20;99.90;;;;;;5024161;28;20514;-69
2023/12/22 09:33:31;;;;;;;13.77;3.43;;;10.20;99.90;;;;;;5022002;28;20443;-69
2023/12/22 09:35:57;;;;;;;13.37;3.77;;;10.10;99.90;;;;;;5020170;28;20871;-69
2023/12/22 09:38:23;;;;;;;15.70;3.67;;;10.20;99.90;;;;;;5019151;28;20275;-69
2023/12/22 09:40:50;;;;;;;16.27;4.00;;;10.30;99.90;;;;;;5020573;28;20197;-69
2023/12/22 09:43:18;;;;;;;10.37;2.87;;;10.30;99.90;;;;;;5018708;28;20482;-69
2023/12/22 09:45:45;;;;;;;19.17;3.90;;;10.30;99.90;;;;;;5015629;28;20435;-69
2023/12/22 09:48:16;;;;;;;15.77;3.67;;;10.40;99.90;;;;;;5019381;28;20471;-69
2023/12/22 09:50:46;;;;;;;9.10;2.70;;;10.30;99.90;;;;;;5017176;28;20894;-70
2023/12/22 09:53:15;;;;;;;13.73;3.73;;;10.30;99.90;;;;;;5023314;28;20446;-69
2023/12/22 09:55:46;;;;;;;9.33;2.63;;;10.30;99.90;;;;;;5022055;28;20415;-69
2023/12/22 09:58:14;;;;;;;7.23;2.60;;;10.30;99.90;;;;;;5023292;28;20439;-69
2023/12/22 10:00:40;;;;;;;15.67;5.20;;;10.30;99.90;;;;;;5022079;28;20948;-69
2023/12/22 10:03:11;;;;;;;11.00;3.80;;;10.30;99.90;;;;;;5021267;28;20482;-69
2023/12/22 10:05:39;;;;;;;9.60;3.57;;;10.30;99.90;;;;;;5020227;28;20451;-69
2023/12/22 10:08:05;;;;;;;9.03;3.10;;;10.40;99.90;;;;;;5018891;28;21138;-69
2023/12/22 10:10:32;;;;;;;21.33;4.23;;;10.40;99.90;;;;;;5022167;28;20451;-69
2023/12/22 10:12:59;;;;;;;8.87;3.40;;;10.40;99.90;;;;;;5018780;28;20446;-69
2023/12/22 10:15:26;;;;;;;16.93;4.37;;;10.30;99.90;;;;;;5022098;28;20453;-71
2023/12/22 10:17:53;;;;;;;11.77;3.90;;;10.30;99.90;;;;;;5017758;28;20439;-69
2023/12/22 10:20:19;;;;;;;16.83;3.97;;;10.40;99.90;;;;;;5023160;28;20506;-69
2023/12/22 10:22:44;;;;;;;15.87;4.10;;;10.40;99.90;;;;;;5022636;28;20510;-69
2023/12/22 10:25:10;;;;;;;10.60;4.30;;;10.30;99.90;;;;;;5025230;28;20211;-69
2023/12/22 10:27:36;;;;;;;10.67;2.87;;;10.30;99.90;;;;;;5019147;28;20179;-69
2023/12/22 10:30:03;;;;;;;19.73;3.90;;;10.30;99.90;;;;;;5026169;28;20218;-69
2023/12/22 10:32:29;;;;;;;13.60;3.73;;;10.10;99.90;;;;;;5024680;28;20760;-69
2023/12/22 10:34:59;;;;;;;23.00;4.70;;;10.10;99.90;;;;;;5027151;28;20457;-69
2023/12/22 10:37:25;;;;;;;11.47;3.63;;;9.90;99.90;;;;;;5026442;28;20452;-69
2023/12/22 10:39:54;;;;;;;17.83;4.40;;;9.90;99.90;;;;;;5024435;28;21073;-69
2023/12/22 10:42:20;;;;;;;11.73;3.40;;;9.80;99.90;;;;;;5024121;28;20491;-69
2023/12/22 10:44:47;;;;;;;11.90;4.30;;;9.80;99.90;;;;;;5026102;28;20489;-69
2023/12/22 10:47:13;;;;;;;12.77;3.60;;;9.80;99.90;;;;;;5018355;28;20965;-69
2023/12/22 10:49:39;;;;;;;20.47;4.00;;;9.80;99.90;;;;;;5018312;28;20485;-69
2023/12/22 10:52:05;;;;;;;15.57;3.63;;;9.80;99.90;;;;;;5019257;28;20188;-68
2023/12/22 10:54:30;;;;;;;12.67;3.47;;;9.80;99.90;;;;;;5052507;28;20456;-68
2023/12/22 10:57:00;;;;;;;20.40;5.60;;;9.80;99.90;;;;;;5027906;28;20184;-68
2023/12/22 10:59:29;;;;;;;10.87;3.80;;;9.80;99.90;;;;;;5023985;28;20265;-69
2023/12/22 11:01:57;;;;;;;21.20;4.30;;;9.80;99.90;;;;;;5021394;28;20522;-69
2023/12/22 11:04:30;;;;;;;14.27;4.40;;;9.80;99.90;;;;;;5024110;28;20523;-69
2023/12/22 11:06:59;;;;;;;8.70;2.90;;;9.80;99.90;;;;;;5024529;28;20438;-69
2023/12/22 11:09:31;;;;;;;13.10;3.70;;;9.80;99.90;;;;;;5022444;28;20834;-69
2023/12/22 11:11:58;;;;;;;19.60;4.67;;;9.80;99.90;;;;;;5020366;28;20521;-69
2023/12/22 11:14:26;;;;;;;13.73;3.33;;;9.80;99.90;;;;;;5021528;28;20442;-69
2023/12/22 11:16:53;;;;;;;18.17;4.97;;;9.70;99.90;;;;;;5023043;28;20462;-69
2023/12/22 11:19:20;;;;;;;11.17;2.80;;;9.70;99.90;;;;;;5024111;28;20501;-69
2023/12/22 11:21:49;;;;;;;9.37;3.43;;;9.60;99.90;;;;;;5012748;28;20486;-69
2023/12/22 11:24:16;;;;;;;9.97;3.60;;;9.70;99.90;;;;;;5017518;28;20473;-69
2023/12/22 11:26:42;;;;;;;14.63;2.90;;;9.70;99.90;;;;;;5021460;28;21018;-69
2023/12/22 11:29:09;;;;;;;15.00;3.13;;;9.70;99.90;;;;;;5028455;28;20614;-69
2023/12/22 11:31:37;;;;;;;6.37;2.97;;;9.60;99.90;;;;;;5024620;28;20455;-70
2023/12/22 11:34:05;;;;;;;11.00;3.00;;;9.70;99.90;;;;;;5021979;28;20443;-69
2023/12/22 11:36:31;;;;;;;7.27;2.60;;;9.60;99.90;;;;;;5019937;28;20439;-69
2023/12/22 11:38:57;;;;;;;5.30;2.20;;;9.70;99.90;;;;;;5021884;28;20497;-69
2023/12/22 11:41:27;;;;;;;11.77;3.40;;;9.60;99.90;;;;;;5027023;28;20447;-69
2023/12/22 11:43:55;;;;;;;15.87;3.73;;;9.70;99.90;;;;;;5020795;28;20306;-69
2023/12/22 11:46:20;;;;;;;9.57;3.00;;;9.70;99.90;;;;;;5047757;28;20442;-69
2023/12/22 11:48:51;;;;;;;10.00;3.20;;;9.60;99.90;;;;;;5017676;28;20888;-69
2023/12/22 11:51:17;;;;;;;6.60;2.77;;;9.60;99.90;;;;;;5018861;28;20562;-68
2023/12/22 11:53:43;;;;;;;11.90;3.03;;;9.60;99.90;;;;;;5022399;28;20438;-68
2023/12/22 11:56:10;;;;;;;8.73;2.30;;;9.60;99.90;;;;;;5019791;28;20428;-69
2023/12/22 11:58:40;;;;;;;8.97;3.10;;;9.50;99.90;;;;;;5020385;28;21117;-68
2023/12/22 12:01:08;;;;;;;8.23;2.37;;;9.60;99.90;;;;;;5021110;28;20423;-70
2023/12/22 12:03:36;;;;;;;4.90;2.50;;;9.60;99.90;;;;;;5020261;28;20467;-68
2023/12/22 12:06:11;;;;;;;6.83;2.30;;;9.60;99.90;;;;;;5021890;28;20434;-69
2023/12/22 12:08:37;;;;;;;6.10;2.60;;;9.60;99.90;;;;;;5020832;28;20485;-69
2023/12/22 12:11:03;;;;;;;6.70;2.50;;;9.50;99.90;;;;;;5018147;28;20435;-67
2023/12/22 12:13:31;;;;;;;6.60;2.50;;;9.50;99.90;;;;;;5017521;28;20224;-69
2023/12/22 12:16:00;;;;;;;4.60;2.50;;;9.50;99.90;;;;;;5017421;28;20816;-68
2023/12/22 12:18:28;;;;;;;3.73;2.43;;;9.60;99.90;;;;;;5023010;28;20438;-69
2023/12/22 12:20:54;;;;;;;4.30;2.80;;;9.60;99.90;;;;;;5018218;28;20439;-68
2023/12/22 12:23:20;;;;;;;9.83;3.17;;;9.70;99.90;;;;;;5022062;28;20471;-68
2023/12/22 12:25:47;;;;;;;5.60;2.30;;;9.70;99.90;;;;;;5020176;28;20214;-68
2023/12/22 12:28:13;;;;;;;5.60;2.10;;;9.70;99.90;;;;;;5021906;28;20470;-68
2023/12/22 12:30:41;;;;;;;5.40;1.70;;;9.70;99.90;;;;;;5020854;28;20476;-68
2023/12/22 12:33:12;;;;;;;4.10;2.13;;;9.70;99.90;;;;;;5017773;28;20530;-68
2023/12/22 12:35:38;;;;;;;6.40;2.40;;;9.80;99.90;;;;;;5017726;28;20407;-68
2023/12/22 12:38:04;;;;;;;9.03;2.50;;;9.70;99.90;;;;;;5017548;28;20450;-68
2023/12/22 12:40:33;;;;;;;6.93;2.00;;;9.80;99.90;;;;;;5018241;28;20431;-68
2023/12/22 12:42:59;;;;;;;4.70;2.50;;;9.70;99.90;;;;;;5016141;28;20201;-68
2023/12/22 12:45:26;;;;;;;2.80;1.90;;;9.80;99.90;;;;;;5020329;28;20438;-68